Fargo (FAR/KFAR)

Map

Destinations

Information

Location
Fargo, ND
Local Time
14:54 / 2:54 pm
GMT Time
19:54 / 7:54 pm
Gates
2
No FAA reported delays
METAR KFAR 281853Z 35014KT 10SM CLR 11/M05 A3000 RMK AO2 SLP168 T01061050
TAF KFAR 281720Z 2818/2918 35012KT P6SM SKC FM290200 VRB06KT P6SM SKC